Time;durP1;ratioP1;P1;durP2;ratioP2;P2;SDS_P1;SDS_P2;PMS_P1;PMS_P2;Temp;Humidity;BMP_temperature;BMP_pressure;BME280_temperature;BME280_humidity;BME280_pressure;Samples;Min_cycle;Max_cycle;Signal;HPM_P1;HPM_P2
2023/12/20 00:01:23;;;;;;;2.20;2.00;;;;;;;;;;5084059;28;20425;-80
2023/12/20 00:03:49;;;;;;;2.60;2.30;;;;;;;;;;5084497;28;20852;-80
2023/12/20 00:06:15;;;;;;;2.80;2.47;;;;;;;;;;5083532;28;20452;-80
2023/12/20 00:08:41;;;;;;;2.30;2.10;;;;;;;;;;5083638;28;20771;-80
2023/12/20 00:11:07;;;;;;;2.88;2.15;;;;;;;;;;5083648;28;20379;-80
2023/12/20 00:13:33;;;;;;;1.90;1.73;;;;;;;;;;5083628;28;20398;-80
2023/12/20 00:15:59;;;;;;;1.90;1.60;;;;;;;;;;5083946;28;20380;-80
2023/12/20 00:18:25;;;;;;;2.08;1.85;;;;;;;;;;5082095;28;20371;-80
2023/12/20 00:20:51;;;;;;;1.60;1.50;;;;;;;;;;5083477;28;20877;-80
2023/12/20 00:23:17;;;;;;;1.63;1.40;;;;;;;;;;5083689;28;20376;-80
2023/12/20 00:25:43;;;;;;;2.50;2.28;;;;;;;;;;5083420;28;20390;-80
2023/12/20 00:28:09;;;;;;;2.47;2.28;;;;;;;;;;5083153;28;20450;-80
2023/12/20 00:30:36;;;;;;;3.03;2.72;;;;;;;;;;5083170;28;20376;-80
2023/12/20 00:33:02;;;;;;;3.17;2.60;;;;;;;;;;5083095;28;20376;-80
2023/12/20 00:35:28;;;;;;;3.30;3.00;;;;;;;;;;5083450;28;20387;-80
2023/12/20 00:37:54;;;;;;;3.23;2.93;;;;;;;;;;5083668;28;20384;-80
2023/12/20 00:40:20;;;;;;;2.40;2.20;;;;;;;;;;5082994;28;20387;-80
2023/12/20 00:42:46;;;;;;;1.70;1.60;;;;;;;;;;5083187;28;20384;-81
2023/12/20 00:45:13;;;;;;;1.67;1.58;;;;;;;;;;5083206;28;20397;-80
2023/12/20 00:47:39;;;;;;;1.95;1.85;;;;;;;;;;5083085;28;20400;-80
2023/12/20 00:50:05;;;;;;;2.42;2.22;;;;;;;;;;5082817;28;20727;-80
2023/12/20 00:52:31;;;;;;;2.33;2.13;;;;;;;;;;5083052;28;20388;-80
2023/12/20 00:54:57;;;;;;;2.45;2.25;;;;;;;;;;5083407;28;20395;-80
2023/12/20 00:57:23;;;;;;;2.85;2.65;;;;;;;;;;5082095;28;20379;-80
2023/12/20 00:59:49;;;;;;;2.60;2.40;;;;;;;;;;5083444;28;20371;-80
2023/12/20 01:02:15;;;;;;;2.50;2.30;;;;;;;;;;5082855;28;20423;-80
2023/12/20 01:04:41;;;;;;;3.00;2.80;;;;;;;;;;5083170;28;20858;-80
2023/12/20 01:07:08;;;;;;;2.80;2.60;;;;;;;;;;5082568;28;20737;-80
2023/12/20 01:09:34;;;;;;;3.75;2.70;;;;;;;;;;5082532;28;20427;-80
2023/12/20 01:12:00;;;;;;;3.33;3.03;;;;;;;;;;5083069;28;20388;-80
2023/12/20 01:14:26;;;;;;;3.40;3.10;;;;;;;;;;5083567;28;20443;-80
2023/12/20 01:16:52;;;;;;;3.10;2.90;;;;;;;;;;5082535;28;20388;-80
2023/12/20 01:19:18;;;;;;;3.30;2.95;;;;;;;;;;5082735;28;20384;-80
2023/12/20 01:21:44;;;;;;;3.70;3.40;;;;;;;;;;5082679;28;20935;-80
2023/12/20 01:24:10;;;;;;;3.42;3.13;;;;;;;;;;5082929;28;20476;-80
2023/12/20 01:26:36;;;;;;;3.55;3.25;;;;;;;;;;5082672;28;20380;-80
2023/12/20 01:29:02;;;;;;;3.97;3.13;;;;;;;;;;5082820;28;20622;-80
2023/12/20 01:31:28;;;;;;;3.58;3.28;;;;;;;;;;5079559;28;20806;-80
2023/12/20 01:33:54;;;;;;;3.92;3.53;;;;;;;;;;5081752;28;20376;-80
2023/12/20 01:36:20;;;;;;;3.63;3.33;;;;;;;;;;5083039;28;20414;-80
2023/12/20 01:38:46;;;;;;;4.03;3.73;;;;;;;;;;5082383;28;20476;-80
2023/12/20 01:41:12;;;;;;;4.10;3.70;;;;;;;;;;5082214;28;20390;-80
2023/12/20 01:43:38;;;;;;;3.75;3.45;;;;;;;;;;5082528;28;20375;-80
2023/12/20 01:46:05;;;;;;;4.20;3.80;;;;;;;;;;5081808;28;20448;-80
2023/12/20 01:48:32;;;;;;;4.20;3.80;;;;;;;;;;5081924;28;20415;-80
2023/12/20 01:50:58;;;;;;;4.32;3.95;;;;;;;;;;5082017;28;20375;-80
2023/12/20 01:53:25;;;;;;;4.30;3.90;;;;;;;;;;5082062;28;20912;-80
2023/12/20 01:55:52;;;;;;;4.60;4.20;;;;;;;;;;5082183;28;20406;-80
2023/12/20 01:58:19;;;;;;;4.50;4.10;;;;;;;;;;5082777;28;20403;-80
2023/12/20 02:00:45;;;;;;;4.57;4.17;;;;;;;;;;5082102;28;20379;-80
2023/12/20 02:03:12;;;;;;;4.28;3.88;;;;;;;;;;5081784;28;20383;-80
2023/12/20 02:05:39;;;;;;;6.72;4.30;;;;;;;;;;5081718;28;20741;-80
2023/12/20 02:08:06;;;;;;;4.85;4.45;;;;;;;;;;5081198;28;20495;-80
2023/12/20 02:10:32;;;;;;;4.15;3.85;;;;;;;;;;5085114;28;20437;-80
2023/12/20 02:12:58;;;;;;;4.57;4.18;;;;;;;;;;5084798;28;20376;-80
2023/12/20 02:15:25;;;;;;;4.28;3.88;;;;;;;;;;5085539;28;20902;-80
2023/12/20 02:17:51;;;;;;;4.70;4.20;;;;;;;;;;5085114;28;20405;-80
2023/12/20 02:20:17;;;;;;;4.88;4.45;;;;;;;;;;5085965;28;20387;-80
2023/12/20 02:22:43;;;;;;;4.80;4.40;;;;;;;;;;5085156;28;20729;-80
2023/12/20 02:25:09;;;;;;;4.60;4.20;;;;;;;;;;5085250;28;20458;-80
2023/12/20 02:27:35;;;;;;;4.55;4.15;;;;;;;;;;5085091;28;20379;-80
2023/12/20 02:30:01;;;;;;;4.80;4.32;;;;;;;;;;5085451;28;20892;-80
2023/12/20 02:32:28;;;;;;;4.90;4.35;;;;;;;;;;5085645;28;20394;-80
2023/12/20 02:34:55;;;;;;;5.00;4.50;;;;;;;;;;5085196;28;20467;-80
2023/12/20 02:37:21;;;;;;;4.90;4.50;;;;;;;;;;5085532;28;20470;-80
2023/12/20 02:39:47;;;;;;;4.80;4.40;;;;;;;;;;5084761;28;20410;-80
2023/12/20 02:42:13;;;;;;;4.60;4.20;;;;;;;;;;5084904;28;20865;-80
2023/12/20 02:44:39;;;;;;;4.75;4.28;;;;;;;;;;5084974;28;20392;-80
2023/12/20 02:47:05;;;;;;;4.70;4.30;;;;;;;;;;5084602;28;20383;-80
2023/12/20 02:49:31;;;;;;;5.00;4.60;;;;;;;;;;5083777;28;20416;-80
2023/12/20 02:51:57;;;;;;;5.28;4.78;;;;;;;;;;5085508;28;20375;-80
2023/12/20 02:54:23;;;;;;;5.70;5.20;;;;;;;;;;5085468;28;20944;-80
2023/12/20 02:56:50;;;;;;;5.50;5.00;;;;;;;;;;5085417;28;20380;-80
2023/12/20 02:59:16;;;;;;;6.18;5.57;;;;;;;;;;5085785;28;20388;-80
2023/12/20 03:01:43;;;;;;;6.88;6.28;;;;;;;;;;5084727;28;20388;-80
2023/12/20 03:04:09;;;;;;;6.63;5.70;;;;;;;;;;5085279;28;20380;-80
2023/12/20 03:06:35;;;;;;;6.68;6.03;;;;;;;;;;5084166;28;20379;-80
2023/12/20 03:09:01;;;;;;;6.55;5.90;;;;;;;;;;5085332;28;20435;-80
2023/12/20 03:11:28;;;;;;;6.10;5.50;;;;;;;;;;5084725;28;20388;-80
2023/12/20 03:13:54;;;;;;;6.95;5.88;;;;;;;;;;5084902;28;20375;-80
2023/12/20 03:16:20;;;;;;;6.38;5.80;;;;;;;;;;5085087;28;20386;-80
2023/12/20 03:18:46;;;;;;;6.43;5.82;;;;;;;;;;5085729;28;20404;-80
2023/12/20 03:21:12;;;;;;;7.38;6.20;;;;;;;;;;5084755;28;20399;-80
2023/12/20 03:23:38;;;;;;;6.78;6.10;;;;;;;;;;5085285;28;20383;-81
2023/12/20 03:26:07;;;;;;;6.65;6.05;;;;;;;;;;5085549;28;20394;-80
2023/12/20 03:28:33;;;;;;;7.68;6.97;;;;;;;;;;5081659;28;20880;-80
2023/12/20 03:30:59;;;;;;;7.47;6.78;;;;;;;;;;5084417;28;20892;-80
2023/12/20 03:33:25;;;;;;;7.93;7.05;;;;;;;;;;5084156;28;20845;-80
2023/12/20 03:35:51;;;;;;;8.48;7.68;;;;;;;;;;5083853;28;20402;-80
2023/12/20 03:38:17;;;;;;;8.85;8.05;;;;;;;;;;5081932;28;20411;-80
2023/12/20 03:40:43;;;;;;;8.80;7.80;;;;;;;;;;5083675;28;20384;-80
2023/12/20 03:43:09;;;;;;;8.77;7.78;;;;;;;;;;5084680;28;20386;-80
2023/12/20 03:45:35;;;;;;;8.55;7.63;;;;;;;;;;5085002;28;20372;-80
2023/12/20 03:48:01;;;;;;;8.50;7.77;;;;;;;;;;5082853;28;21367;-80
2023/12/20 03:50:27;;;;;;;9.10;8.20;;;;;;;;;;5083545;28;20384;-80
2023/12/20 03:52:53;;;;;;;9.73;8.43;;;;;;;;;;5084007;28;20485;-80
2023/12/20 03:55:19;;;;;;;11.85;8.25;;;;;;;;;;5084482;28;20376;-80
2023/12/20 03:57:45;;;;;;;10.07;8.33;;;;;;;;;;5084309;28;20471;-80
2023/12/20 04:00:11;;;;;;;9.73;8.65;;;;;;;;;;5084354;28;20434;-79
2023/12/20 04:02:38;;;;;;;9.73;8.73;;;;;;;;;;5084257;28;20376;-80
2023/12/20 04:05:04;;;;;;;10.47;9.37;;;;;;;;;;5084993;28;20545;-80
2023/12/20 04:07:30;;;;;;;10.97;9.33;;;;;;;;;;5084868;28;20722;-80
2023/12/20 04:09:56;;;;;;;10.55;9.18;;;;;;;;;;5085271;28;20479;-80
2023/12/20 04:12:22;;;;;;;12.70;10.70;;;;;;;;;;5084309;28;20950;-80
2023/12/20 04:14:48;;;;;;;11.55;10.35;;;;;;;;;;5084118;28;20433;-81
2023/12/20 04:17:16;;;;;;;13.35;11.02;;;;;;;;;;5084635;28;20376;-80
2023/12/20 04:19:42;;;;;;;12.80;11.07;;;;;;;;;;5084182;28;20727;-79
2023/12/20 04:22:08;;;;;;;12.43;10.95;;;;;;;;;;5084008;28;20842;-79
2023/12/20 04:24:34;;;;;;;14.70;12.10;;;;;;;;;;5085126;28;20383;-80
2023/12/20 04:27:00;;;;;;;13.87;11.50;;;;;;;;;;5085019;28;20383;-79
2023/12/20 04:29:26;;;;;;;14.13;11.82;;;;;;;;;;5084072;28;20823;-80
2023/12/20 04:31:52;;;;;;;16.85;12.35;;;;;;;;;;5083848;28;20380;-79
2023/12/20 04:34:18;;;;;;;14.60;12.30;;;;;;;;;;5084130;28;20426;-80
2023/12/20 04:36:44;;;;;;;13.23;11.77;;;;;;;;;;5084776;28;20383;-79
2023/12/20 04:39:10;;;;;;;14.13;12.00;;;;;;;;;;5066920;28;20384;-81
2023/12/20 04:41:36;;;;;;;14.70;12.55;;;;;;;;;;5083535;28;20468;-80
2023/12/20 04:44:02;;;;;;;16.13;12.27;;;;;;;;;;5084107;28;20383;-80
2023/12/20 04:46:28;;;;;;;15.15;12.77;;;;;;;;;;5083800;28;20446;-79
2023/12/20 04:48:55;;;;;;;15.23;12.73;;;;;;;;;;5084976;28;20420;-79
2023/12/20 04:51:21;;;;;;;15.05;13.27;;;;;;;;;;5083515;28;20372;-80
2023/12/20 04:53:47;;;;;;;18.13;13.25;;;;;;;;;;5084837;28;20396;-80
2023/12/20 04:56:13;;;;;;;15.95;13.25;;;;;;;;;;5084662;28;20429;-79
2023/12/20 04:58:39;;;;;;;17.63;13.88;;;;;;;;;;5083128;28;20403;-79
2023/12/20 05:01:08;;;;;;;16.88;14.00;;;;;;;;;;5084407;28;20388;-79
2023/12/20 05:03:35;;;;;;;17.92;13.98;;;;;;;;;;5082432;28;20478;-79
2023/12/20 05:06:01;;;;;;;17.90;13.90;;;;;;;;;;5082322;28;20443;-79
2023/12/20 05:08:27;;;;;;;17.02;14.00;;;;;;;;;;5083021;28;20415;-79
2023/12/20 05:10:56;;;;;;;18.42;14.70;;;;;;;;;;5082871;28;20387;-80
2023/12/20 05:13:22;;;;;;;17.85;15.05;;;;;;;;;;5084842;28;20380;-80
2023/12/20 05:15:48;;;;;;;17.73;14.80;;;;;;;;;;5084444;28;20383;-79
2023/12/20 05:18:14;;;;;;;16.77;14.52;;;;;;;;;;5085004;28;20437;-79
2023/12/20 05:20:40;;;;;;;16.35;13.70;;;;;;;;;;5084387;28;20382;-80
2023/12/20 05:23:07;;;;;;;18.93;15.20;;;;;;;;;;5084875;28;20391;-80
2023/12/20 05:25:33;;;;;;;18.30;14.77;;;;;;;;;;5085495;28;20388;-80
2023/12/20 05:27:59;;;;;;;19.13;15.27;;;;;;;;;;5083310;28;20384;-80
2023/12/20 05:30:26;;;;;;;20.15;15.35;;;;;;;;;;5080090;28;20447;-80
2023/12/20 05:32:52;;;;;;;21.77;16.45;;;;;;;;;;5064288;28;20381;-80
2023/12/20 05:35:19;;;;;;;17.55;15.57;;;;;;;;;;5063254;28;20381;-80
2023/12/20 05:37:45;;;;;;;17.88;15.35;;;;;;;;;;5063823;28;20451;-80
2023/12/20 05:40:11;;;;;;;19.17;15.60;;;;;;;;;;5063552;28;20397;-80
2023/12/20 05:42:37;;;;;;;18.80;15.67;;;;;;;;;;5061862;28;20743;-79
2023/12/20 05:45:04;;;;;;;20.63;16.13;;;;;;;;;;5066007;28;20385;-80
2023/12/20 05:47:30;;;;;;;19.52;15.68;;;;;;;;;;5065753;28;20381;-79
2023/12/20 05:49:56;;;;;;;18.58;15.48;;;;;;;;;;5063902;28;20468;-80
2023/12/20 05:52:22;;;;;;;18.33;15.43;;;;;;;;;;5066921;28;20407;-79
2023/12/20 05:54:48;;;;;;;17.10;14.73;;;;;;;;;;5066416;28;20401;-80
2023/12/20 05:57:14;;;;;;;15.55;13.57;;;;;;;;;;5080621;28;20854;-80
2023/12/20 05:59:40;;;;;;;16.77;14.13;;;;;;;;;;5086968;28;20408;-80
2023/12/20 06:02:06;;;;;;;15.55;13.85;;;;;;;;;;5087758;28;20396;-80
2023/12/20 06:04:33;;;;;;;16.67;13.95;;;;;;;;;;5087310;28;20379;-80
2023/12/20 06:06:59;;;;;;;18.42;14.27;;;;;;;;;;5086180;28;20375;-80
2023/12/20 06:09:25;;;;;;;16.02;13.38;;;;;;;;;;5087340;28;20905;-80
2023/12/20 06:11:51;;;;;;;15.63;13.93;;;;;;;;;;5087549;28;20395;-80
2023/12/20 06:14:17;;;;;;;17.52;14.27;;;;;;;;;;5086699;28;20375;-80
2023/12/20 06:16:43;;;;;;;17.10;14.20;;;;;;;;;;5087127;28;20387;-79
2023/12/20 06:19:09;;;;;;;16.85;14.60;;;;;;;;;;5086819;28;20388;-79
2023/12/20 06:21:35;;;;;;;16.80;14.77;;;;;;;;;;5085866;28;20392;-81
2023/12/20 06:24:01;;;;;;;18.05;16.10;;;;;;;;;;5085714;28;20435;-78
2023/12/20 06:26:27;;;;;;;22.23;18.15;;;;;;;;;;5087420;28;20386;-81
2023/12/20 06:28:53;;;;;;;22.40;17.80;;;;;;;;;;5087155;28;20412;-78
2023/12/20 06:31:19;;;;;;;20.83;16.93;;;;;;;;;;5088616;28;20406;-78
2023/12/20 06:33:45;;;;;;;21.85;17.10;;;;;;;;;;5083378;28;20809;-82
2023/12/20 06:36:13;;;;;;;22.42;17.30;;;;;;;;;;5089422;28;20375;-83
2023/12/20 06:38:39;;;;;;;22.48;17.60;;;;;;;;;;5085358;28;20406;-80
2023/12/20 06:41:05;;;;;;;20.95;17.58;;;;;;;;;;5087152;28;20386;-82
2023/12/20 06:43:32;;;;;;;17.70;15.80;;;;;;;;;;5085797;28;20391;-82
2023/12/20 06:45:58;;;;;;;19.95;16.85;;;;;;;;;;5089201;28;20378;-81
2023/12/20 06:48:24;;;;;;;20.88;16.98;;;;;;;;;;5089290;28;20419;-81
2023/12/20 06:50:50;;;;;;;21.60;16.80;;;;;;;;;;5088822;28;20510;-79
2023/12/20 06:53:16;;;;;;;20.42;15.65;;;;;;;;;;5075498;28;20385;-77
2023/12/20 06:55:42;;;;;;;20.90;16.67;;;;;;;;;;5073957;28;20383;-78
2023/12/20 06:58:08;;;;;;;20.13;15.90;;;;;;;;;;5074811;28;20384;-78
2023/12/20 07:00:34;;;;;;;17.08;15.27;;;;;;;;;;5074681;28;20391;-78
2023/12/20 07:03:00;;;;;;;17.88;15.60;;;;;;;;;;5074641;28;20387;-78
2023/12/20 07:05:26;;;;;;;19.55;15.43;;;;;;;;;;5075437;28;20383;-79
2023/12/20 07:07:53;;;;;;;16.58;14.52;;;;;;;;;;5074986;28;20376;-78
2023/12/20 07:10:19;;;;;;;16.63;14.85;;;;;;;;;;5074825;28;20379;-78
2023/12/20 07:12:45;;;;;;;18.35;15.55;;;;;;;;;;5074914;28;20368;-78
2023/12/20 07:15:11;;;;;;;16.52;14.73;;;;;;;;;;5076494;28;20386;-78
2023/12/20 07:17:37;;;;;;;17.17;14.00;;;;;;;;;;5077186;28;20736;-78
2023/12/20 07:20:04;;;;;;;15.32;13.82;;;;;;;;;;5077169;28;20379;-78
2023/12/20 07:22:33;;;;;;;15.15;13.73;;;;;;;;;;5077336;28;20418;-78
2023/12/20 07:25:00;;;;;;;14.35;12.85;;;;;;;;;;5075962;28;20384;-78
2023/12/20 07:27:26;;;;;;;14.93;13.35;;;;;;;;;;5070475;28;20787;-78
2023/12/20 07:29:52;;;;;;;14.52;13.02;;;;;;;;;;5057033;28;20415;-78
2023/12/20 07:32:18;;;;;;;14.55;13.00;;;;;;;;;;5058016;28;20389;-78
2023/12/20 07:34:45;;;;;;;14.50;13.00;;;;;;;;;;5057143;28;20388;-78
2023/12/20 07:37:11;;;;;;;17.95;13.73;;;;;;;;;;5055414;28;20408;-78
2023/12/20 07:39:38;;;;;;;15.52;13.93;;;;;;;;;;5054702;28;20382;-78
2023/12/20 07:42:04;;;;;;;16.27;14.50;;;;;;;;;;5060233;28;20389;-79
2023/12/20 07:44:30;;;;;;;17.42;15.40;;;;;;;;;;5064425;28;20382;-78
2023/12/20 07:46:56;;;;;;;17.98;14.90;;;;;;;;;;5065559;28;20457;-78
2023/12/20 07:49:22;;;;;;;16.60;14.68;;;;;;;;;;5084460;28;20454;-78
2023/12/20 07:51:48;;;;;;;17.38;14.90;;;;;;;;;;5083592;28;20376;-79
2023/12/20 07:54:14;;;;;;;16.20;14.57;;;;;;;;;;5083755;28;20376;-79
2023/12/20 07:56:40;;;;;;;16.60;14.45;;;;;;;;;;5084297;28;20437;-78
2023/12/20 07:59:06;;;;;;;16.90;15.10;;;;;;;;;;5083045;28;20427;-78
2023/12/20 08:01:32;;;;;;;17.73;15.50;;;;;;;;;;5083561;28;20394;-78
2023/12/20 08:03:58;;;;;;;18.50;15.40;;;;;;;;;;5084201;28;20407;-78
2023/12/20 08:06:24;;;;;;;18.25;15.10;;;;;;;;;;5084168;28;20375;-78
2023/12/20 08:08:50;;;;;;;16.70;15.00;;;;;;;;;;5082603;28;20404;-78
2023/12/20 08:11:17;;;;;;;17.40;14.85;;;;;;;;;;5081339;28;20382;-78
2023/12/20 08:13:43;;;;;;;18.08;15.68;;;;;;;;;;5081674;28;20391;-79
2023/12/20 08:16:09;;;;;;;15.77;14.10;;;;;;;;;;5064597;28;20376;-79
2023/12/20 08:18:35;;;;;;;16.48;14.77;;;;;;;;;;5083876;28;20372;-79
2023/12/20 08:21:02;;;;;;;16.25;14.55;;;;;;;;;;5081963;28;20461;-79
2023/12/20 08:23:28;;;;;;;17.02;15.00;;;;;;;;;;5086348;28;20391;-79
2023/12/20 08:25:54;;;;;;;16.73;14.93;;;;;;;;;;5086078;28;20804;-79
2023/12/20 08:28:20;;;;;;;16.08;14.38;;;;;;;;;;5085596;28;20403;-79
2023/12/20 08:30:46;;;;;;;16.03;14.33;;;;;;;;;;5084648;28;20427;-79
2023/12/20 08:33:12;;;;;;;15.70;14.00;;;;;;;;;;5083491;28;20437;-79
2023/12/20 08:35:40;;;;;;;17.05;14.60;;;;;;;;;;5083597;28;20459;-79
2023/12/20 08:38:06;;;;;;;15.43;13.57;;;;;;;;;;5085406;28;20963;-79
2023/12/20 08:40:32;;;;;;;14.82;13.32;;;;;;;;;;5085076;28;20448;-79
2023/12/20 08:42:58;;;;;;;15.63;14.03;;;;;;;;;;5084487;28;20848;-80
2023/12/20 08:45:24;;;;;;;14.68;12.98;;;;;;;;;;5079375;28;20376;-79
2023/12/20 08:47:50;;;;;;;15.17;13.67;;;;;;;;;;5080847;28;20415;-79
2023/12/20 08:50:16;;;;;;;14.13;12.73;;;;;;;;;;5073578;28;20454;-79
2023/12/20 08:52:42;;;;;;;14.97;13.43;;;;;;;;;;5066431;28;20382;-79
2023/12/20 08:55:10;;;;;;;14.73;13.18;;;;;;;;;;5065797;28;20381;-79
2023/12/20 08:57:36;;;;;;;14.05;12.65;;;;;;;;;;5062082;28;20377;-79
2023/12/20 09:00:03;;;;;;;14.50;13.15;;;;;;;;;;5065432;28;20795;-79
2023/12/20 09:02:29;;;;;;;14.00;12.65;;;;;;;;;;5066252;28;20381;-79
2023/12/20 09:04:55;;;;;;;14.02;12.63;;;;;;;;;;5061795;28;20452;-79
2023/12/20 09:07:30;;;;;;;14.02;12.68;;;;;;;;;;5066209;28;20393;-79
2023/12/20 09:09:56;;;;;;;13.38;12.15;;;;;;;;;;5066029;28;20408;-79
2023/12/20 09:12:22;;;;;;;14.35;13.00;;;;;;;;;;5047061;28;20385;-79
2023/12/20 09:14:48;;;;;;;12.95;11.65;;;;;;;;;;5048349;28;20843;-80
2023/12/20 09:17:16;;;;;;;13.20;11.87;;;;;;;;;;5064821;28;20388;-79
2023/12/20 09:19:43;;;;;;;14.20;12.80;;;;;;;;;;5071476;28;20388;-80
2023/12/20 09:22:09;;;;;;;12.63;11.52;;;;;;;;;;5072758;28;20876;-80
2023/12/20 09:24:35;;;;;;;12.50;11.32;;;;;;;;;;5073087;28;20393;-80
2023/12/20 09:27:02;;;;;;;13.35;11.95;;;;;;;;;;5074927;28;20484;-80
2023/12/20 09:29:28;;;;;;;12.27;11.18;;;;;;;;;;5072750;28;20405;-80
2023/12/20 09:31:54;;;;;;;12.20;11.10;;;;;;;;;;5073218;28;20405;-80
2023/12/20 09:34:21;;;;;;;12.05;10.88;;;;;;;;;;5073426;28;20377;-80
2023/12/20 09:36:47;;;;;;;12.48;11.27;;;;;;;;;;5072399;28;20381;-80
2023/12/20 09:39:14;;;;;;;11.33;10.33;;;;;;;;;;5072744;28;20416;-81
2023/12/20 09:41:46;;;;;;;11.35;10.35;;;;;;;;;;5072892;28;20388;-80
2023/12/20 09:44:21;;;;;;;10.70;9.70;;;;;;;;;;5072865;28;20409;-81
2023/12/20 09:46:50;;;;;;;10.48;9.57;;;;;;;;;;5072805;28;20377;-81
2023/12/20 09:49:17;;;;;;;11.23;10.23;;;;;;;;;;5077120;28;20415;-80
2023/12/20 09:51:44;;;;;;;10.88;9.80;;;;;;;;;;5093014;28;20383;-80
2023/12/20 09:54:10;;;;;;;10.90;9.80;;;;;;;;;;5092314;28;20402;-80
2023/12/20 09:56:37;;;;;;;9.50;8.70;;;;;;;;;;5093336;28;20375;-80
2023/12/20 09:59:04;;;;;;;9.55;8.75;;;;;;;;;;5074657;28;20380;-80
2023/12/20 10:01:30;;;;;;;8.48;7.70;;;;;;;;;;5084880;28;20379;-78
2023/12/20 10:03:56;;;;;;;9.68;8.88;;;;;;;;;;5090495;28;20394;-79
2023/12/20 10:06:22;;;;;;;9.17;8.37;;;;;;;;;;5091808;28;20383;-79
2023/12/20 10:08:48;;;;;;;7.45;6.85;;;;;;;;;;5092318;28;20407;-79
2023/12/20 10:11:15;;;;;;;9.43;7.35;;;;;;;;;;5092197;28;20831;-79
2023/12/20 10:13:41;;;;;;;7.35;6.65;;;;;;;;;;5092427;28;20391;-79
2023/12/20 10:16:07;;;;;;;7.80;7.10;;;;;;;;;;5091063;28;20379;-80
2023/12/20 10:18:33;;;;;;;6.57;6.03;;;;;;;;;;5092886;28;20387;-79
2023/12/20 10:21:00;;;;;;;6.28;5.60;;;;;;;;;;5092046;28;20394;-79
2023/12/20 10:23:26;;;;;;;6.00;5.45;;;;;;;;;;5089434;28;20398;-78
2023/12/20 10:25:59;;;;;;;4.88;4.47;;;;;;;;;;5092764;28;20379;-78
2023/12/20 10:28:27;;;;;;;4.85;4.30;;;;;;;;;;5086682;28;20400;-78
2023/12/20 10:30:53;;;;;;;4.72;4.32;;;;;;;;;;5088991;28;20400;-78
2023/12/20 10:33:29;;;;;;;3.63;3.33;;;;;;;;;;5081337;28;20413;-78
2023/12/20 10:35:56;;;;;;;4.10;3.70;;;;;;;;;;5068913;28;20377;-78
2023/12/20 10:38:23;;;;;;;5.05;3.50;;;;;;;;;;5082480;28;20860;-78
2023/12/20 10:40:49;;;;;;;4.53;4.13;;;;;;;;;;5085081;28;20379;-78
2023/12/20 10:43:16;;;;;;;3.45;2.65;;;;;;;;;;5087052;28;20403;-79
2023/12/20 10:45:45;;;;;;;2.60;2.20;;;;;;;;;;5086801;28;20447;-79
2023/12/20 10:48:12;;;;;;;2.17;2.08;;;;;;;;;;5087264;28;20451;-78
2023/12/20 10:50:39;;;;;;;2.63;2.23;;;;;;;;;;5088043;28;20404;-79
2023/12/20 10:53:06;;;;;;;2.17;2.08;;;;;;;;;;5088119;28;20383;-78
2023/12/20 10:55:33;;;;;;;1.50;1.40;;;;;;;;;;5087400;28;20850;-78
2023/12/20 10:58:05;;;;;;;1.45;1.35;;;;;;;;;;5085568;28;20429;-78
2023/12/20 11:00:32;;;;;;;1.13;1.10;;;;;;;;;;5088017;28;20386;-78
2023/12/20 11:03:00;;;;;;;1.80;1.15;;;;;;;;;;5087404;28;20432;-78
2023/12/20 11:05:45;;;;;;;1.27;1.13;;;;;;;;;;5087873;28;20383;-78
2023/12/20 11:08:17;;;;;;;1.07;1.00;;;;;;;;;;5083948;28;20375;-79
2023/12/20 11:10:51;;;;;;;1.30;1.20;;;;;;;;;;5088216;28;20419;-79
2023/12/20 11:13:20;;;;;;;1.55;1.45;;;;;;;;;;5088461;28;20371;-79
2023/12/20 11:15:46;;;;;;;1.30;1.10;;;;;;;;;;5088380;28;20383;-79
2023/12/20 11:18:12;;;;;;;1.30;1.13;;;;;;;;;;5087458;28;20471;-79
2023/12/20 11:20:42;;;;;;;1.20;1.10;;;;;;;;;;5087552;28;20376;-79
2023/12/20 11:23:09;;;;;;;1.10;1.00;;;;;;;;;;5087199;28;20372;-79
2023/12/20 11:25:54;;;;;;;0.80;0.80;;;;;;;;;;5087763;28;20792;-79
2023/12/20 11:28:24;;;;;;;0.90;0.90;;;;;;;;;;5087125;28;20399;-79
2023/12/20 11:30:50;;;;;;;0.95;0.85;;;;;;;;;;5082709;28;20398;-79
2023/12/20 11:33:17;;;;;;;1.40;1.05;;;;;;;;;;5067741;28;20378;-79
2023/12/20 11:35:43;;;;;;;1.20;1.10;;;;;;;;;;5067350;28;20381;-79
2023/12/20 11:38:10;;;;;;;0.80;0.80;;;;;;;;;;5061959;28;20374;-79
2023/12/20 11:40:36;;;;;;;0.75;0.75;;;;;;;;;;5067447;28;20387;-80
2023/12/20 11:43:03;;;;;;;0.80;0.80;;;;;;;;;;5066836;28;20378;-80
2023/12/20 11:45:29;;;;;;;1.70;0.70;;;;;;;;;;5067799;28;20373;-80
2023/12/20 11:47:57;;;;;;;1.00;0.90;;;;;;;;;;5085525;28;20870;-80
2023/12/20 11:50:24;;;;;;;0.70;0.70;;;;;;;;;;5085442;28;20391;-80
2023/12/20 11:52:51;;;;;;;0.70;0.70;;;;;;;;;;5085398;28;20368;-80
2023/12/20 11:55:17;;;;;;;1.10;0.90;;;;;;;;;;5085675;28;20395;-80
2023/12/20 11:57:43;;;;;;;0.43;0.43;;;;;;;;;;5085206;28;20380;-81
2023/12/20 12:00:10;;;;;;;0.93;0.70;;;;;;;;;;5087733;28;20367;-80
2023/12/20 12:02:36;;;;;;;1.00;0.80;;;;;;;;;;5086561;28;20368;-80
2023/12/20 12:05:05;;;;;;;0.70;0.40;;;;;;;;;;5086545;28;20378;-80
2023/12/20 12:07:31;;;;;;;0.65;0.65;;;;;;;;;;5086051;28;20379;-80
2023/12/20 12:09:57;;;;;;;0.90;0.50;;;;;;;;;;5086321;28;20438;-80
2023/12/20 12:12:25;;;;;;;0.65;0.57;;;;;;;;;;5084291;28;20378;-80
2023/12/20 12:14:51;;;;;;;0.77;0.60;;;;;;;;;;5086334;28;20421;-80
2023/12/20 12:17:17;;;;;;;0.70;0.60;;;;;;;;;;5085761;28;20406;-79
2023/12/20 12:19:43;;;;;;;0.93;0.82;;;;;;;;;;5085863;28;20380;-79
2023/12/20 12:22:19;;;;;;;0.50;0.40;;;;;;;;;;5086211;28;20801;-79
2023/12/20 12:24:46;;;;;;;0.30;0.30;;;;;;;;;;5085405;28;20386;-79
2023/12/20 12:27:13;;;;;;;0.50;0.40;;;;;;;;;;5081399;28;20485;-80
2023/12/20 12:29:39;;;;;;;0.57;0.38;;;;;;;;;;5086174;28;20411;-79
2023/12/20 12:32:06;;;;;;;1.00;0.63;;;;;;;;;;5086840;28;20380;-79
2023/12/20 12:34:34;;;;;;;1.17;0.70;;;;;;;;;;5085237;28;20386;-80
2023/12/20 12:36:59;;;;;;;0.83;0.70;;;;;;;;;;5084935;28;20391;-82
2023/12/20 12:39:26;;;;;;;1.00;0.70;;;;;;;;;;5085295;28;20376;-78
2023/12/20 12:41:52;;;;;;;0.80;0.70;;;;;;;;;;5084618;28;20415;-78
2023/12/20 12:44:18;;;;;;;1.20;0.70;;;;;;;;;;5086539;28;20392;-81
2023/12/20 12:46:45;;;;;;;0.55;0.50;;;;;;;;;;5086610;28;20395;-81
2023/12/20 12:49:11;;;;;;;0.60;0.60;;;;;;;;;;5086554;28;20412;-80
2023/12/20 12:51:37;;;;;;;0.63;0.63;;;;;;;;;;5084273;28;20386;-80
2023/12/20 12:54:03;;;;;;;0.57;0.50;;;;;;;;;;5086021;28;20404;-79
2023/12/20 12:56:29;;;;;;;0.68;0.60;;;;;;;;;;5084564;28;20442;-80
2023/12/20 12:58:55;;;;;;;0.85;0.70;;;;;;;;;;5087418;28;20376;-80
2023/12/20 13:01:21;;;;;;;0.90;0.75;;;;;;;;;;5087666;28;20458;-79
2023/12/20 13:03:47;;;;;;;1.30;1.00;;;;;;;;;;5086407;28;20387;-80
2023/12/20 13:06:13;;;;;;;1.05;0.80;;;;;;;;;;5086850;28;20371;-80
2023/12/20 13:08:39;;;;;;;0.70;0.67;;;;;;;;;;5086800;28;20964;-80
2023/12/20 13:11:05;;;;;;;0.98;0.90;;;;;;;;;;5086771;28;20382;-80
2023/12/20 13:13:31;;;;;;;0.75;0.75;;;;;;;;;;5086285;28;20395;-80
2023/12/20 13:15:57;;;;;;;2.00;1.02;;;;;;;;;;5086480;28;20411;-80
2023/12/20 13:18:23;;;;;;;0.98;0.90;;;;;;;;;;5085898;28;20914;-80
2023/12/20 13:20:50;;;;;;;0.93;0.90;;;;;;;;;;5085996;28;20371;-80
2023/12/20 13:23:18;;;;;;;0.80;0.80;;;;;;;;;;5086211;28;20382;-80
2023/12/20 13:25:45;;;;;;;1.15;1.05;;;;;;;;;;5072685;28;20393;-80
2023/12/20 13:28:12;;;;;;;1.52;1.10;;;;;;;;;;5065893;28;20400;-80
2023/12/20 13:30:38;;;;;;;1.70;1.08;;;;;;;;;;5065128;28;20380;-80
2023/12/20 13:33:05;;;;;;;1.00;0.90;;;;;;;;;;5078772;28;20864;-80
2023/12/20 13:35:31;;;;;;;1.23;1.02;;;;;;;;;;5087485;28;20391;-80
2023/12/20 13:37:57;;;;;;;2.55;1.17;;;;;;;;;;5087099;28;20380;-80
2023/12/20 13:40:23;;;;;;;1.20;1.00;;;;;;;;;;5086375;28;20481;-80
2023/12/20 13:42:49;;;;;;;1.15;1.05;;;;;;;;;;5085903;28;20407;-79
2023/12/20 13:45:16;;;;;;;1.35;1.00;;;;;;;;;;5086928;28;20449;-79
2023/12/20 13:47:41;;;;;;;1.20;0.90;;;;;;;;;;5085844;28;20483;-80
2023/12/20 13:50:08;;;;;;;2.28;0.90;;;;;;;;;;5068609;28;20407;-80
2023/12/20 13:52:34;;;;;;;1.37;0.90;;;;;;;;;;5085485;28;20390;-81
2023/12/20 13:55:00;;;;;;;2.03;0.90;;;;;;;;;;5084835;28;20380;-81
2023/12/20 13:57:26;;;;;;;1.45;0.95;;;;;;;;;;5084443;28;20376;-80
2023/12/20 13:59:52;;;;;;;1.50;0.95;;;;;;;;;;5085806;28;20388;-79
2023/12/20 14:02:17;;;;;;;2.47;1.48;;;;;;;;;;5086422;28;20384;-79
2023/12/20 14:04:43;;;;;;;2.05;1.13;;;;;;;;;;5086641;28;20399;-80
2023/12/20 14:07:10;;;;;;;1.75;1.20;;;;;;;;;;5089157;28;20858;-79
2023/12/20 14:09:36;;;;;;;1.60;1.03;;;;;;;;;;5089138;28;20441;-81
2023/12/20 14:12:02;;;;;;;1.20;1.00;;;;;;;;;;5088734;28;20860;-80
2023/12/20 14:14:28;;;;;;;2.25;1.02;;;;;;;;;;5088723;28;20376;-80
2023/12/20 14:16:54;;;;;;;1.30;0.90;;;;;;;;;;5088036;28;20380;-81
2023/12/20 14:19:20;;;;;;;1.30;1.08;;;;;;;;;;5088198;28;20464;-80
2023/12/20 14:21:46;;;;;;;1.73;0.97;;;;;;;;;;5088761;28;20380;-80
2023/12/20 14:24:14;;;;;;;2.40;0.95;;;;;;;;;;5087838;28;20383;-79
2023/12/20 14:26:40;;;;;;;1.15;0.98;;;;;;;;;;5070908;28;20422;-80
2023/12/20 14:29:07;;;;;;;1.80;0.90;;;;;;;;;;5088521;28;20411;-80